Folla — LLPD — position and weather

sailwx.info

Track history (hours):
 
Tides and Currents Weather Stations Pressure Air Temp Water Temp Dewpoint Dewpoint Depression Visibility Wind Speed Wind Dir Waves Ship Positions

Folla

Last reported at 2014-Jul-30 08:06 UTC. Time now 2014-Jul-31 15:43 UTC.
Position N 63°30' E 009°56'.

Length 52 m; draft 5 m.

Type: Cargo ship. MMSI: 258253000.

Date/timePositionNaut miles runAvg speedWind from/ knotsBaromVisibWave heightAir tempDewpointWater temp
2014-Jul-30 08:06N 63°30' E 009°56'610.6
2014-Jul-30 07:33N 63°28' E 010°08'8 7.9
2014-Jul-30 06:34N 63°27' E 010°25'0 0.0
2014-Jul-30 05:34N 63°27' E 010°25'0 0.0
2014-Jul-30 04:34N 63°27' E 010°25'3 3.1
2014-Jul-30 03:33N 63°27' E 010°19'83 7.5
2014-Jul-29 16:32N 64°48' E 011°06'5 5.4
2014-Jul-29 15:33N 64°52' E 011°14'0 0.0
2014-Jul-29 14:34N 64°52' E 011°14'0 0.0
2014-Jul-29 13:34N 64°52' E 011°14'0 0.0
2014-Jul-29 12:34N 64°52' E 011°14'0 0.0
2014-Jul-29 11:34N 64°52' E 011°14'0 0.0
2014-Jul-29 10:33N 64°52' E 011°14'0 0.0
2014-Jul-29 09:34N 64°52' E 011°14'0 0.0
2014-Jul-29 08:34N 64°52' E 011°14'0 0.1
2014-Jul-29 07:33N 64°52' E 011°15'0 0.1
2014-Jul-29 06:34N 64°52' E 011°14'0 0.0
2014-Jul-29 05:33N 64°52' E 011°14'0 0.0
2014-Jul-29 04:34N 64°52' E 011°14'0 0.0
2014-Jul-29 03:34N 64°52' E 011°14'0 0.0
2014-Jul-29 02:34N 64°52' E 011°14'0 0.0
2014-Jul-29 01:34N 64°52' E 011°14'0 0.0
2014-Jul-29 00:34N 64°52' E 011°14'0 0.0
2014-Jul-28 23:34N 64°52' E 011°14'0 0.0
2014-Jul-28 22:34N 64°52' E 011°14'0 0.0
2014-Jul-28 21:34N 64°52' E 011°14'0 0.0
2014-Jul-28 20:34N 64°52' E 011°14'7 6.7
2014-Jul-28 19:34N 64°56' E 011°26'7811.1
2014-Jul-28 12:31N 66°08' E 012°40'1111.6
2014-Jul-28 11:34N 66°19' E 012°40'8 3.8
2014-Jul-28 09:33N 66°26' E 012°47'1310.1
2014-Jul-28 08:19N 66°36' E 013°05'24 4.7
2014-Jul-28 03:12N 66°58' E 013°32'911.5
2014-Jul-28 02:25N 67°03' E 013°51'1011.1
2014-Jul-28 01:33N 67°11' E 014°05'10 9.8
2014-Jul-28 00:34N 67°17' E 014°24'4 3.6
2014-Jul-27 23:34N 67°21' E 014°24'1111.4
2014-Jul-27 22:33N 67°32' E 014°29'  
2014-Jul-25 03:27N 66°33' E 013°04'910.1
2014-Jul-25 02:33N 66°25' E 012°59'96 8.0
2014-Jul-24 14:32N 64°56' E 011°26'7 7.6
2014-Jul-24 13:33N 64°51' E 011°13'5 0.2
2014-Jul-23 08:10N 64°47' E 011°05'6 9.4
2014-Jul-23 07:33N 64°52' E 011°14'0 0.3
2014-Jul-23 06:33N 64°52' E 011°14'0 0.0
2014-Jul-23 05:33N 64°52' E 011°14'0 0.0
2014-Jul-23 04:33N 64°52' E 011°14'0 0.0
2014-Jul-23 03:33N 64°52' E 011°14'0 0.0
2014-Jul-23 02:33N 64°52' E 011°14'0 0.0
2014-Jul-23 01:33N 64°52' E 011°14'0 0.0
2014-Jul-23 00:33N 64°52' E 011°14'0 0.0
2014-Jul-22 23:33N 64°52' E 011°14'0 0.0
2014-Jul-22 22:33N 64°52' E 011°14'0 0.0
2014-Jul-22 21:33N 64°52' E 011°14'0 0.0
2014-Jul-22 20:33N 64°52' E 011°14'0 0.0
2014-Jul-22 19:33N 64°52' E 011°14'0 0.0
2014-Jul-22 18:33N 64°52' E 011°14'0 0.0
2014-Jul-22 17:33N 64°52' E 011°14'0 0.0
2014-Jul-22 16:33N 64°52' E 011°14'0 0.0
2014-Jul-22 15:33N 64°52' E 011°14'0 0.0
2014-Jul-22 14:33N 64°52' E 011°14'0 0.0
2014-Jul-22 13:33N 64°52' E 011°14'0 0.3
2014-Jul-22 12:33N 64°52' E 011°15'0 0.0
2014-Jul-22 11:33N 64°52' E 011°15'1010.2
2014-Jul-22 10:33N 64°59' E 011°32'7111.0
2014-Jul-22 04:09N 66°04' E 012°38'711.5
2014-Jul-22 03:33N 66°08' E 012°51'8 7.1
2014-Jul-22 02:22N 66°17' E 012°56'1011.6
2014-Jul-22 01:28N 66°27' E 012°59'1010.4
2014-Jul-22 00:33N 66°36' E 013°04'20 8.9
2014-Jul-21 22:18N 66°54' E 013°27'8 9.8
2014-Jul-21 21:30N 66°59' E 013°42'13 4.0
2014-Jul-21 18:12N 67°10' E 014°03'711.3
2014-Jul-21 17:33N 67°15' E 014°15'3 3.5
2014-Jul-21 16:33N 67°17' E 014°22'1110.5
2014-Jul-21 15:33N 67°27' E 014°28'  
Track history (hours):
 
Tides and Currents Weather Stations Pressure Air Temp Water Temp Dewpoint Dewpoint Depression Visibility Wind Speed Wind Dir Waves Ship Positions

Folla

Last reported at 2014-Jul-30 08:06 UTC. Time now 2014-Jul-31 15:43 UTC.
Position N 63°30' E 009°56'.

Length 52 m; draft 5 m.

Type: Cargo ship. MMSI: 258253000.

Date/timePositionNaut miles runAvg speedWind from/ knotsBaromVisibWave heightAir tempDewpointWater temp
2014-Jul-30 08:06N 63°30' E 009°56'610.6
2014-Jul-30 07:33N 63°28' E 010°08'8 7.9
2014-Jul-30 06:34N 63°27' E 010°25'0 0.0
2014-Jul-30 05:34N 63°27' E 010°25'0 0.0
2014-Jul-30 04:34N 63°27' E 010°25'3 3.1
2014-Jul-30 03:33N 63°27' E 010°19'83 7.5
2014-Jul-29 16:32N 64°48' E 011°06'5 5.4
2014-Jul-29 15:33N 64°52' E 011°14'0 0.0
2014-Jul-29 14:34N 64°52' E 011°14'0 0.0
2014-Jul-29 13:34N 64°52' E 011°14'0 0.0
2014-Jul-29 12:34N 64°52' E 011°14'0 0.0
2014-Jul-29 11:34N 64°52' E 011°14'0 0.0
2014-Jul-29 10:33N 64°52' E 011°14'0 0.0
2014-Jul-29 09:34N 64°52' E 011°14'0 0.0
2014-Jul-29 08:34N 64°52' E 011°14'0 0.1
2014-Jul-29 07:33N 64°52' E 011°15'0 0.1
2014-Jul-29 06:34N 64°52' E 011°14'0 0.0
2014-Jul-29 05:33N 64°52' E 011°14'0 0.0
2014-Jul-29 04:34N 64°52' E 011°14'0 0.0
2014-Jul-29 03:34N 64°52' E 011°14'0 0.0
2014-Jul-29 02:34N 64°52' E 011°14'0 0.0
2014-Jul-29 01:34N 64°52' E 011°14'0 0.0
2014-Jul-29 00:34N 64°52' E 011°14'0 0.0
2014-Jul-28 23:34N 64°52' E 011°14'0 0.0
2014-Jul-28 22:34N 64°52' E 011°14'0 0.0
2014-Jul-28 21:34N 64°52' E 011°14'0 0.0
2014-Jul-28 20:34N 64°52' E 011°14'7 6.7
2014-Jul-28 19:34N 64°56' E 011°26'7811.1
2014-Jul-28 12:31N 66°08' E 012°40'1111.6
2014-Jul-28 11:34N 66°19' E 012°40'8 3.8
2014-Jul-28 09:33N 66°26' E 012°47'1310.1
2014-Jul-28 08:19N 66°36' E 013°05'24 4.7
2014-Jul-28 03:12N 66°58' E 013°32'911.5
2014-Jul-28 02:25N 67°03' E 013°51'1011.1
2014-Jul-28 01:33N 67°11' E 014°05'10 9.8
2014-Jul-28 00:34N 67°17' E 014°24'4 3.6
2014-Jul-27 23:34N 67°21' E 014°24'1111.4
2014-Jul-27 22:33N 67°32' E 014°29'  
2014-Jul-25 03:27N 66°33' E 013°04'910.1
2014-Jul-25 02:33N 66°25' E 012°59'96 8.0
2014-Jul-24 14:32N 64°56' E 011°26'7 7.6
2014-Jul-24 13:33N 64°51' E 011°13'5 0.2
2014-Jul-23 08:10N 64°47' E 011°05'6 9.4
2014-Jul-23 07:33N 64°52' E 011°14'0 0.3
2014-Jul-23 06:33N 64°52' E 011°14'0 0.0
2014-Jul-23 05:33N 64°52' E 011°14'0 0.0
2014-Jul-23 04:33N 64°52' E 011°14'0 0.0
2014-Jul-23 03:33N 64°52' E 011°14'0 0.0
2014-Jul-23 02:33N 64°52' E 011°14'0 0.0
2014-Jul-23 01:33N 64°52' E 011°14'0 0.0
2014-Jul-23 00:33N 64°52' E 011°14'0 0.0
2014-Jul-22 23:33N 64°52' E 011°14'0 0.0
2014-Jul-22 22:33N 64°52' E 011°14'0 0.0
2014-Jul-22 21:33N 64°52' E 011°14'0 0.0
2014-Jul-22 20:33N 64°52' E 011°14'0 0.0
2014-Jul-22 19:33N 64°52' E 011°14'0 0.0
2014-Jul-22 18:33N 64°52' E 011°14'0 0.0
2014-Jul-22 17:33N 64°52' E 011°14'0 0.0
2014-Jul-22 16:33N 64°52' E 011°14'0 0.0
2014-Jul-22 15:33N 64°52' E 011°14'0 0.0
2014-Jul-22 14:33N 64°52' E 011°14'0 0.0
2014-Jul-22 13:33N 64°52' E 011°14'0 0.3
2014-Jul-22 12:33N 64°52' E 011°15'0 0.0
2014-Jul-22 11:33N 64°52' E 011°15'1010.2
2014-Jul-22 10:33N 64°59' E 011°32'7111.0
2014-Jul-22 04:09N 66°04' E 012°38'711.5
2014-Jul-22 03:33N 66°08' E 012°51'8 7.1
2014-Jul-22 02:22N 66°17' E 012°56'1011.6
2014-Jul-22 01:28N 66°27' E 012°59'1010.4
2014-Jul-22 00:33N 66°36' E 013°04'20 8.9
2014-Jul-21 22:18N 66°54' E 013°27'8 9.8
2014-Jul-21 21:30N 66°59' E 013°42'13 4.0
2014-Jul-21 18:12N 67°10' E 014°03'711.3
2014-Jul-21 17:33N 67°15' E 014°15'3 3.5
2014-Jul-21 16:33N 67°17' E 014°22'1110.5
2014-Jul-21 15:33N 67°27' E 014°28'  

Dump ship's entire track history